sensor_id;sensor_type;location;lat;lon;timestamp;P1;P2;P0
80555;PMS5003;69889;55.040;73.076;2024-03-29T00:01:30;42.50;32.25;20.00
80555;PMS5003;69889;55.040;73.076;2024-03-29T00:04:00;37.25;30.00;19.00
80555;PMS5003;69889;55.040;73.076;2024-03-29T00:06:27;38.00;31.00;21.00
80555;PMS5003;69889;55.040;73.076;2024-03-29T00:08:53;40.00;32.00;20.50
80555;PMS5003;69889;55.040;73.076;2024-03-29T00:11:20;42.00;33.25;21.25
80555;PMS5003;69889;55.040;73.076;2024-03-29T00:13:46;38.75;30.50;19.25
80555;PMS5003;69889;55.040;73.076;2024-03-29T00:16:13;41.00;32.75;20.75
80555;PMS5003;69889;55.040;73.076;2024-03-29T00:18:39;37.00;29.25;19.75
80555;PMS5003;69889;55.040;73.076;2024-03-29T00:21:05;40.00;32.00;22.00
80555;PMS5003;69889;55.040;73.076;2024-03-29T00:23:32;44.75;35.00;22.00
80555;PMS5003;69889;55.040;73.076;2024-03-29T00:25:58;39.50;32.50;21.00
80555;PMS5003;69889;55.040;73.076;2024-03-29T00:28:25;43.00;34.00;21.00
80555;PMS5003;69889;55.040;73.076;2024-03-29T00:30:51;42.00;33.00;21.00
80555;PMS5003;69889;55.040;73.076;2024-03-29T00:33:18;41.00;32.75;20.25
80555;PMS5003;69889;55.040;73.076;2024-03-29T00:35:44;44.00;35.00;21.00
80555;PMS5003;69889;55.040;73.076;2024-03-29T00:38:10;41.00;34.00;21.00
80555;PMS5003;69889;55.040;73.076;2024-03-29T00:40:38;45.50;37.00;23.00
80555;PMS5003;69889;55.040;73.076;2024-03-29T00:43:04;45.00;36.00;22.00
80555;PMS5003;69889;55.040;73.076;2024-03-29T00:45:30;45.00;34.75;22.00
80555;PMS5003;69889;55.040;73.076;2024-03-29T00:47:57;44.00;35.00;22.75
80555;PMS5003;69889;55.040;73.076;2024-03-29T00:50:23;43.00;34.75;22.00
80555;PMS5003;69889;55.040;73.076;2024-03-29T00:52:50;46.00;37.00;23.00
80555;PMS5003;69889;55.040;73.076;2024-03-29T00:55:16;50.00;39.25;25.00
80555;PMS5003;69889;55.040;73.076;2024-03-29T00:57:43;57.00;43.00;27.00
80555;PMS5003;69889;55.040;73.076;2024-03-29T01:00:10;55.00;41.25;26.00
80555;PMS5003;69889;55.040;73.076;2024-03-29T01:02:36;54.00;41.00;26.00
80555;PMS5003;69889;55.040;73.076;2024-03-29T01:05:03;53.75;41.00;26.00
80555;PMS5003;69889;55.040;73.076;2024-03-29T01:07:30;51.75;39.50;26.00
80555;PMS5003;69889;55.040;73.076;2024-03-29T01:09:56;49.00;39.00;25.00
80555;PMS5003;69889;55.040;73.076;2024-03-29T01:12:23;52.50;39.50;25.25
80555;PMS5003;69889;55.040;73.076;2024-03-29T01:14:49;53.00;41.50;26.00
80555;PMS5003;69889;55.040;73.076;2024-03-29T01:17:15;53.50;43.00;27.00
80555;PMS5003;69889;55.040;73.076;2024-03-29T01:19:42;58.00;44.00;27.00
80555;PMS5003;69889;55.040;73.076;2024-03-29T01:22:09;54.50;42.50;26.75
80555;PMS5003;69889;55.040;73.076;2024-03-29T01:24:35;55.50;42.50;26.25
80555;PMS5003;69889;55.040;73.076;2024-03-29T01:27:01;52.00;41.00;26.00
80555;PMS5003;69889;55.040;73.076;2024-03-29T01:29:32;52.00;41.00;27.00
80555;PMS5003;69889;55.040;73.076;2024-03-29T01:31:59;52.25;41.00;25.75
80555;PMS5003;69889;55.040;73.076;2024-03-29T01:34:25;47.75;37.75;24.00
80555;PMS5003;69889;55.040;73.076;2024-03-29T01:36:52;45.00;36.75;23.00
80555;PMS5003;69889;55.040;73.076;2024-03-29T01:39:18;45.00;37.00;23.50
80555;PMS5003;69889;55.040;73.076;2024-03-29T01:41:47;47.00;35.25;22.00
80555;PMS5003;69889;55.040;73.076;2024-03-29T01:44:13;39.50;32.00;20.00
80555;PMS5003;69889;55.040;73.076;2024-03-29T01:46:40;40.00;32.00;20.00
80555;PMS5003;69889;55.040;73.076;2024-03-29T01:49:06;40.00;33.00;21.00
80555;PMS5003;69889;55.040;73.076;2024-03-29T01:51:36;38.50;31.00;19.75
80555;PMS5003;69889;55.040;73.076;2024-03-29T01:54:03;40.00;31.00;20.00
80555;PMS5003;69889;55.040;73.076;2024-03-29T01:56:30;36.00;29.00;19.00
80555;PMS5003;69889;55.040;73.076;2024-03-29T01:58:57;36.50;28.50;17.75
80555;PMS5003;69889;55.040;73.076;2024-03-29T02:01:24;34.25;28.50;18.00
80555;PMS5003;69889;55.040;73.076;2024-03-29T02:03:52;34.75;27.00;16.00
80555;PMS5003;69889;55.040;73.076;2024-03-29T02:06:18;34.50;27.00;16.25
80555;PMS5003;69889;55.040;73.076;2024-03-29T02:08:45;33.25;26.75;19.00
80555;PMS5003;69889;55.040;73.076;2024-03-29T02:11:13;28.75;24.00;15.00
80555;PMS5003;69889;55.040;73.076;2024-03-29T02:13:39;29.50;24.25;15.00
80555;PMS5003;69889;55.040;73.076;2024-03-29T02:16:06;27.25;23.00;15.00
80555;PMS5003;69889;55.040;73.076;2024-03-29T02:18:32;28.00;22.00;13.00
80555;PMS5003;69889;55.040;73.076;2024-03-29T02:20:59;18.75;16.00;11.00
80555;PMS5003;69889;55.040;73.076;2024-03-29T02:23:26;19.00;16.00;10.00
80555;PMS5003;69889;55.040;73.076;2024-03-29T02:25:54;19.75;17.00;11.00
80555;PMS5003;69889;55.040;73.076;2024-03-29T02:28:21;17.00;15.00;10.00
80555;PMS5003;69889;55.040;73.076;2024-03-29T02:30:49;19.00;16.00;10.00
80555;PMS5003;69889;55.040;73.076;2024-03-29T02:33:16;19.00;15.00;10.00
80555;PMS5003;69889;55.040;73.076;2024-03-29T02:35:42;21.00;18.00;11.00
80555;PMS5003;69889;55.040;73.076;2024-03-29T02:38:09;19.00;16.00;10.00
80555;PMS5003;69889;55.040;73.076;2024-03-29T02:40:35;17.25;13.75;9.00
80555;PMS5003;69889;55.040;73.076;2024-03-29T02:43:02;18.00;13.50;9.25
80555;PMS5003;69889;55.040;73.076;2024-03-29T02:45:28;13.75;12.25;8.00
80555;PMS5003;69889;55.040;73.076;2024-03-29T02:47:54;20.00;17.00;9.00
80555;PMS5003;69889;55.040;73.076;2024-03-29T02:50:21;15.00;13.00;7.50
80555;PMS5003;69889;55.040;73.076;2024-03-29T02:52:47;16.00;14.00;8.00
80555;PMS5003;69889;55.040;73.076;2024-03-29T02:55:14;18.00;14.00;8.00
80555;PMS5003;69889;55.040;73.076;2024-03-29T02:57:40;15.00;13.00;8.00
80555;PMS5003;69889;55.040;73.076;2024-03-29T03:00:07;14.00;12.00;7.00
80555;PMS5003;69889;55.040;73.076;2024-03-29T03:02:40;11.75;9.75;7.00
80555;PMS5003;69889;55.040;73.076;2024-03-29T03:05:07;9.00;7.25;5.00
80555;PMS5003;69889;55.040;73.076;2024-03-29T03:07:33;7.00;5.00;4.00
80555;PMS5003;69889;55.040;73.076;2024-03-29T03:10:19;8.00;6.00;4.00
80555;PMS5003;69889;55.040;73.076;2024-03-29T03:13:03;7.00;6.00;4.00
80555;PMS5003;69889;55.040;73.076;2024-03-29T03:15:30;7.00;6.00;4.00
80555;PMS5003;69889;55.040;73.076;2024-03-29T03:17:56;9.00;6.00;4.00
80555;PMS5003;69889;55.040;73.076;2024-03-29T03:20:23;9.00;8.00;5.00
80555;PMS5003;69889;55.040;73.076;2024-03-29T03:22:54;9.00;8.00;5.00
80555;PMS5003;69889;55.040;73.076;2024-03-29T03:25:22;9.00;8.00;5.25
80555;PMS5003;69889;55.040;73.076;2024-03-29T03:27:48;9.25;8.00;6.00
80555;PMS5003;69889;55.040;73.076;2024-03-29T03:30:15;10.00;8.00;5.00
80555;PMS5003;69889;55.040;73.076;2024-03-29T03:32:41;10.00;9.00;6.00
80555;PMS5003;69889;55.040;73.076;2024-03-29T03:35:08;12.00;11.00;7.00
80555;PMS5003;69889;55.040;73.076;2024-03-29T03:37:34;10.00;9.00;6.00
80555;PMS5003;69889;55.040;73.076;2024-03-29T03:40:01;10.25;9.00;6.00
80555;PMS5003;69889;55.040;73.076;2024-03-29T03:42:27;12.00;10.00;6.00
80555;PMS5003;69889;55.040;73.076;2024-03-29T03:44:54;11.25;9.25;6.00
80555;PMS5003;69889;55.040;73.076;2024-03-29T03:47:20;12.00;10.00;7.00
80555;PMS5003;69889;55.040;73.076;2024-03-29T03:49:46;11.00;9.00;6.00
80555;PMS5003;69889;55.040;73.076;2024-03-29T03:52:13;10.00;9.00;5.00
80555;PMS5003;69889;55.040;73.076;2024-03-29T03:54:39;7.25;6.50;4.75
80555;PMS5003;69889;55.040;73.076;2024-03-29T03:57:06;9.00;8.00;5.00
80555;PMS5003;69889;55.040;73.076;2024-03-29T03:59:33;7.25;7.00;5.00
80555;PMS5003;69889;55.040;73.076;2024-03-29T04:02:00;7.00;6.00;4.00
80555;PMS5003;69889;55.040;73.076;2024-03-29T04:04:26;8.25;7.75;5.00
80555;PMS5003;69889;55.040;73.076;2024-03-29T04:07:03;9.00;8.00;6.00
80555;PMS5003;69889;55.040;73.076;2024-03-29T04:09:30;8.00;7.00;5.00
80555;PMS5003;69889;55.040;73.076;2024-03-29T04:11:56;9.00;8.00;5.00
80555;PMS5003;69889;55.040;73.076;2024-03-29T04:14:23;9.00;8.00;5.25
80555;PMS5003;69889;55.040;73.076;2024-03-29T04:16:49;6.75;6.00;4.00
80555;PMS5003;69889;55.040;73.076;2024-03-29T04:19:16;10.00;8.25;5.00
80555;PMS5003;69889;55.040;73.076;2024-03-29T04:21:42;7.00;6.00;4.00
80555;PMS5003;69889;55.040;73.076;2024-03-29T04:24:09;8.00;7.75;5.00
80555;PMS5003;69889;55.040;73.076;2024-03-29T04:26:36;8.00;6.00;4.00
80555;PMS5003;69889;55.040;73.076;2024-03-29T04:29:05;6.00;6.00;4.25
80555;PMS5003;69889;55.040;73.076;2024-03-29T04:31:32;6.00;6.00;4.00
80555;PMS5003;69889;55.040;73.076;2024-03-29T04:33:58;8.00;7.00;5.00
80555;PMS5003;69889;55.040;73.076;2024-03-29T04:36:25;7.25;6.00;4.00
80555;PMS5003;69889;55.040;73.076;2024-03-29T04:38:51;5.00;5.00;4.00
80555;PMS5003;69889;55.040;73.076;2024-03-29T04:41:19;5.00;5.00;3.00
80555;PMS5003;69889;55.040;73.076;2024-03-29T04:43:46;6.00;5.00;3.50
80555;PMS5003;69889;55.040;73.076;2024-03-29T04:46:13;7.00;6.00;4.00
80555;PMS5003;69889;55.040;73.076;2024-03-29T04:48:41;5.00;5.00;3.00
80555;PMS5003;69889;55.040;73.076;2024-03-29T04:51:08;7.00;7.00;5.00
80555;PMS5003;69889;55.040;73.076;2024-03-29T04:53:37;6.00;6.00;4.00
80555;PMS5003;69889;55.040;73.076;2024-03-29T04:56:04;6.00;5.25;4.00
80555;PMS5003;69889;55.040;73.076;2024-03-29T04:58:31;5.75;5.00;3.00
80555;PMS5003;69889;55.040;73.076;2024-03-29T05:00:58;6.00;6.00;4.00
80555;PMS5003;69889;55.040;73.076;2024-03-29T05:03:24;7.50;6.75;4.75
80555;PMS5003;69889;55.040;73.076;2024-03-29T05:05:51;7.00;5.75;4.00
80555;PMS5003;69889;55.040;73.076;2024-03-29T05:08:38;5.50;5.00;3.00
80555;PMS5003;69889;55.040;73.076;2024-03-29T05:11:04;4.00;4.00;3.00
80555;PMS5003;69889;55.040;73.076;2024-03-29T05:13:31;6.00;5.25;3.00
80555;PMS5003;69889;55.040;73.076;2024-03-29T05:15:58;5.50;5.00;4.00
80555;PMS5003;69889;55.040;73.076;2024-03-29T05:18:24;7.00;7.00;5.00
80555;PMS5003;69889;55.040;73.076;2024-03-29T05:20:51;5.00;5.00;4.00
80555;PMS5003;69889;55.040;73.076;2024-03-29T05:23:17;4.00;4.00;3.00
80555;PMS5003;69889;55.040;73.076;2024-03-29T05:25:44;4.00;4.00;3.00
80555;PMS5003;69889;55.040;73.076;2024-03-29T05:28:10;4.00;3.25;2.25
80555;PMS5003;69889;55.040;73.076;2024-03-29T05:30:37;4.00;3.00;2.00
80555;PMS5003;69889;55.040;73.076;2024-03-29T05:33:03;4.75;4.00;3.00
80555;PMS5003;69889;55.040;73.076;2024-03-29T05:35:30;2.00;2.00;1.00
80555;PMS5003;69889;55.040;73.076;2024-03-29T05:37:57;3.00;3.00;2.00
80555;PMS5003;69889;55.040;73.076;2024-03-29T05:40:24;2.00;2.00;1.25
80555;PMS5003;69889;55.040;73.076;2024-03-29T05:42:54;3.00;3.00;2.00
80555;PMS5003;69889;55.040;73.076;2024-03-29T05:45:25;3.00;2.00;1.00
80555;PMS5003;69889;55.040;73.076;2024-03-29T05:47:52;3.00;3.00;2.00
80555;PMS5003;69889;55.040;73.076;2024-03-29T05:50:19;2.00;2.00;2.00
80555;PMS5003;69889;55.040;73.076;2024-03-29T05:52:45;3.00;3.00;2.00
80555;PMS5003;69889;55.040;73.076;2024-03-29T05:55:12;3.00;3.00;1.50
80555;PMS5003;69889;55.040;73.076;2024-03-29T05:57:38;3.00;2.50;1.75
80555;PMS5003;69889;55.040;73.076;2024-03-29T06:00:07;2.00;2.00;1.00
80555;PMS5003;69889;55.040;73.076;2024-03-29T06:02:35;2.00;2.00;2.00
80555;PMS5003;69889;55.040;73.076;2024-03-29T06:05:02;1.00;1.00;0.50
80555;PMS5003;69889;55.040;73.076;2024-03-29T06:07:28;2.00;2.00;1.00
80555;PMS5003;69889;55.040;73.076;2024-03-29T06:09:55;3.00;2.00;1.00
80555;PMS5003;69889;55.040;73.076;2024-03-29T06:12:22;2.00;2.00;1.00
80555;PMS5003;69889;55.040;73.076;2024-03-29T06:14:48;2.00;2.00;2.00
80555;PMS5003;69889;55.040;73.076;2024-03-29T06:17:33;2.25;2.00;1.00
80555;PMS5003;69889;55.040;73.076;2024-03-29T06:20:01;1.00;1.00;0.75
80555;PMS5003;69889;55.040;73.076;2024-03-29T06:22:29;3.00;2.00;1.00
80555;PMS5003;69889;55.040;73.076;2024-03-29T06:24:56;3.00;2.50;1.00
80555;PMS5003;69889;55.040;73.076;2024-03-29T06:27:31;1.00;1.00;1.00
80555;PMS5003;69889;55.040;73.076;2024-03-29T06:29:58;2.00;1.50;1.00
80555;PMS5003;69889;55.040;73.076;2024-03-29T06:32:24;2.00;2.00;1.00
80555;PMS5003;69889;55.040;73.076;2024-03-29T06:34:51;1.00;1.00;1.00
80555;PMS5003;69889;55.040;73.076;2024-03-29T06:37:17;1.00;1.00;1.00
80555;PMS5003;69889;55.040;73.076;2024-03-29T06:39:51;1.00;1.00;1.00
80555;PMS5003;69889;55.040;73.076;2024-03-29T06:42:18;1.00;1.00;1.00
80555;PMS5003;69889;55.040;73.076;2024-03-29T06:44:44;1.00;1.00;0.00
80555;PMS5003;69889;55.040;73.076;2024-03-29T06:47:11;1.00;1.00;1.00
80555;PMS5003;69889;55.040;73.076;2024-03-29T06:49:38;1.00;1.00;0.75
80555;PMS5003;69889;55.040;73.076;2024-03-29T06:52:04;1.00;1.00;1.00
80555;PMS5003;69889;55.040;73.076;2024-03-29T06:54:31;1.00;1.00;1.00
80555;PMS5003;69889;55.040;73.076;2024-03-29T06:56:58;2.00;2.00;1.00
80555;PMS5003;69889;55.040;73.076;2024-03-29T06:59:26;1.00;1.00;0.00
80555;PMS5003;69889;55.040;73.076;2024-03-29T07:01:52;1.00;1.00;1.00
80555;PMS5003;69889;55.040;73.076;2024-03-29T07:04:19;1.00;1.00;1.00
80555;PMS5003;69889;55.040;73.076;2024-03-29T07:06:46;0.50;0.50;0.00
80555;PMS5003;69889;55.040;73.076;2024-03-29T07:09:19;1.00;0.75;0.25
80555;PMS5003;69889;55.040;73.076;2024-03-29T07:11:49;1.00;1.00;0.75
80555;PMS5003;69889;55.040;73.076;2024-03-29T07:14:16;1.00;1.00;0.00
80555;PMS5003;69889;55.040;73.076;2024-03-29T07:16:43;2.00;2.00;1.00
80555;PMS5003;69889;55.040;73.076;2024-03-29T07:19:10;1.00;1.00;1.00
80555;PMS5003;69889;55.040;73.076;2024-03-29T07:21:40;1.00;1.00;0.00
80555;PMS5003;69889;55.040;73.076;2024-03-29T07:24:06;2.00;2.00;1.00
80555;PMS5003;69889;55.040;73.076;2024-03-29T07:26:35;1.00;0.50;0.00
80555;PMS5003;69889;55.040;73.076;2024-03-29T07:29:01;1.00;1.00;1.00
80555;PMS5003;69889;55.040;73.076;2024-03-29T07:31:28;1.00;1.00;0.00
80555;PMS5003;69889;55.040;73.076;2024-03-29T07:33:55;1.00;1.00;1.00
80555;PMS5003;69889;55.040;73.076;2024-03-29T07:46:43;1.00;1.00;1.00
80555;PMS5003;69889;55.040;73.076;2024-03-29T07:49:13;1.00;1.00;0.00
80555;PMS5003;69889;55.040;73.076;2024-03-29T07:51:39;1.00;1.00;0.00
80555;PMS5003;69889;55.040;73.076;2024-03-29T07:54:05;1.00;1.00;0.00
80555;PMS5003;69889;55.040;73.076;2024-03-29T07:56:32;1.25;1.00;1.00
80555;PMS5003;69889;55.040;73.076;2024-03-29T07:58:58;1.00;1.00;0.00
80555;PMS5003;69889;55.040;73.076;2024-03-29T08:01:25;1.25;1.00;1.00
80555;PMS5003;69889;55.040;73.076;2024-03-29T08:03:52;1.00;1.00;1.00
80555;PMS5003;69889;55.040;73.076;2024-03-29T08:06:24;1.00;1.00;0.00
80555;PMS5003;69889;55.040;73.076;2024-03-29T08:08:50;1.00;1.00;0.25
80555;PMS5003;69889;55.040;73.076;2024-03-29T08:11:17;1.00;1.00;0.00
80555;PMS5003;69889;55.040;73.076;2024-03-29T08:13:43;0.75;0.75;0.00
80555;PMS5003;69889;55.040;73.076;2024-03-29T08:16:10;1.00;1.00;0.00
80555;PMS5003;69889;55.040;73.076;2024-03-29T08:18:37;1.00;1.00;0.25
80555;PMS5003;69889;55.040;73.076;2024-03-29T08:21:03;1.00;1.00;0.00
80555;PMS5003;69889;55.040;73.076;2024-03-29T08:23:31;1.00;1.00;1.00
80555;PMS5003;69889;55.040;73.076;2024-03-29T08:25:58;2.00;2.00;1.00
80555;PMS5003;69889;55.040;73.076;2024-03-29T08:28:24;2.00;2.00;1.00
80555;PMS5003;69889;55.040;73.076;2024-03-29T08:31:02;1.00;1.00;1.00
80555;PMS5003;69889;55.040;73.076;2024-03-29T08:33:28;1.00;1.00;1.00
80555;PMS5003;69889;55.040;73.076;2024-03-29T08:35:56;0.50;0.00;0.00
80555;PMS5003;69889;55.040;73.076;2024-03-29T08:38:24;1.25;1.00;1.00
80555;PMS5003;69889;55.040;73.076;2024-03-29T08:40:51;1.00;1.00;0.75
80555;PMS5003;69889;55.040;73.076;2024-03-29T08:43:17;1.00;1.00;0.75
80555;PMS5003;69889;55.040;73.076;2024-03-29T08:45:44;1.00;1.00;1.00
80555;PMS5003;69889;55.040;73.076;2024-03-29T08:48:10;1.00;1.00;1.00
80555;PMS5003;69889;55.040;73.076;2024-03-29T08:50:37;1.00;1.00;1.00
80555;PMS5003;69889;55.040;73.076;2024-03-29T08:53:06;2.00;2.00;1.00
80555;PMS5003;69889;55.040;73.076;2024-03-29T08:55:33;1.00;1.00;1.00
80555;PMS5003;69889;55.040;73.076;2024-03-29T08:58:00;1.00;1.00;1.00
80555;PMS5003;69889;55.040;73.076;2024-03-29T09:00:27;1.00;1.00;1.00
80555;PMS5003;69889;55.040;73.076;2024-03-29T09:02:54;2.00;1.50;1.00
80555;PMS5003;69889;55.040;73.076;2024-03-29T09:05:20;2.00;2.00;1.00
80555;PMS5003;69889;55.040;73.076;2024-03-29T09:07:48;2.00;2.00;1.00
80555;PMS5003;69889;55.040;73.076;2024-03-29T09:10:15;1.00;1.00;1.00
80555;PMS5003;69889;55.040;73.076;2024-03-29T09:12:42;1.00;1.00;0.00
80555;PMS5003;69889;55.040;73.076;2024-03-29T09:15:15;1.00;1.00;1.00
80555;PMS5003;69889;55.040;73.076;2024-03-29T09:17:43;1.00;1.00;1.00
80555;PMS5003;69889;55.040;73.076;2024-03-29T09:20:10;1.75;1.50;1.00
80555;PMS5003;69889;55.040;73.076;2024-03-29T09:22:37;1.00;1.00;1.00
80555;PMS5003;69889;55.040;73.076;2024-03-29T09:25:04;1.00;1.00;1.00
80555;PMS5003;69889;55.040;73.076;2024-03-29T09:27:31;1.00;1.00;0.00
80555;PMS5003;69889;55.040;73.076;2024-03-29T09:30:03;2.00;2.00;1.00
80555;PMS5003;69889;55.040;73.076;2024-03-29T09:32:31;1.50;1.00;1.00
80555;PMS5003;69889;55.040;73.076;2024-03-29T09:34:58;2.00;2.00;1.00
80555;PMS5003;69889;55.040;73.076;2024-03-29T09:37:26;1.00;1.00;1.00
80555;PMS5003;69889;55.040;73.076;2024-03-29T09:39:53;1.00;1.00;1.00
80555;PMS5003;69889;55.040;73.076;2024-03-29T09:42:20;1.25;1.00;1.00
80555;PMS5003;69889;55.040;73.076;2024-03-29T09:44:47;2.00;1.00;1.00
80555;PMS5003;69889;55.040;73.076;2024-03-29T09:47:17;1.00;1.00;1.00
80555;PMS5003;69889;55.040;73.076;2024-03-29T09:49:47;1.00;1.00;1.00
80555;PMS5003;69889;55.040;73.076;2024-03-29T09:52:16;2.00;2.00;1.00
80555;PMS5003;69889;55.040;73.076;2024-03-29T09:54:45;2.00;2.00;2.00
80555;PMS5003;69889;55.040;73.076;2024-03-29T09:57:11;3.00;3.00;2.00
80555;PMS5003;69889;55.040;73.076;2024-03-29T09:59:39;2.50;2.00;1.00
80555;PMS5003;69889;55.040;73.076;2024-03-29T10:02:11;2.00;2.00;1.00
80555;PMS5003;69889;55.040;73.076;2024-03-29T10:04:40;2.00;2.00;1.00
80555;PMS5003;69889;55.040;73.076;2024-03-29T10:07:08;2.00;2.00;1.00
80555;PMS5003;69889;55.040;73.076;2024-03-29T10:09:35;2.00;2.00;1.00
80555;PMS5003;69889;55.040;73.076;2024-03-29T10:12:02;2.00;2.00;1.00
80555;PMS5003;69889;55.040;73.076;2024-03-29T10:14:32;1.00;1.00;1.00
80555;PMS5003;69889;55.040;73.076;2024-03-29T10:17:08;2.00;2.00;1.00
80555;PMS5003;69889;55.040;73.076;2024-03-29T10:19:35;2.00;2.00;1.00
80555;PMS5003;69889;55.040;73.076;2024-03-29T10:22:06;3.00;2.00;1.00
80555;PMS5003;69889;55.040;73.076;2024-03-29T10:24:33;2.00;2.00;1.00
80555;PMS5003;69889;55.040;73.076;2024-03-29T10:27:00;3.00;2.00;1.00
80555;PMS5003;69889;55.040;73.076;2024-03-29T10:29:30;2.00;2.00;1.00
80555;PMS5003;69889;55.040;73.076;2024-03-29T10:31:58;2.00;2.00;1.00
80555;PMS5003;69889;55.040;73.076;2024-03-29T10:34:25;2.00;1.00;1.00
80555;PMS5003;69889;55.040;73.076;2024-03-29T10:36:52;2.00;2.00;1.00
80555;PMS5003;69889;55.040;73.076;2024-03-29T10:39:21;1.00;1.00;1.00
80555;PMS5003;69889;55.040;73.076;2024-03-29T10:41:50;2.00;2.00;1.00
80555;PMS5003;69889;55.040;73.076;2024-03-29T10:44:18;2.00;2.00;1.00
80555;PMS5003;69889;55.040;73.076;2024-03-29T10:46:46;1.00;1.00;1.00
80555;PMS5003;69889;55.040;73.076;2024-03-29T10:49:14;9.00;8.00;5.00
80555;PMS5003;69889;55.040;73.076;2024-03-29T10:51:43;8.00;7.00;4.00
80555;PMS5003;69889;55.040;73.076;2024-03-29T10:54:10;5.00;4.00;2.00
80555;PMS5003;69889;55.040;73.076;2024-03-29T10:56:37;3.00;3.00;2.00
80555;PMS5003;69889;55.040;73.076;2024-03-29T10:59:38;3.00;2.00;1.00
80555;PMS5003;69889;55.040;73.076;2024-03-29T11:01:58;2.00;2.00;2.00
80555;PMS5003;69889;55.040;73.076;2024-03-29T11:04:28;7.00;6.25;3.00
80555;PMS5003;69889;55.040;73.076;2024-03-29T11:06:57;6.00;5.00;3.00
80555;PMS5003;69889;55.040;73.076;2024-03-29T11:09:27;7.00;6.25;4.00
80555;PMS5003;69889;55.040;73.076;2024-03-29T11:11:55;6.00;6.00;4.00
80555;PMS5003;69889;55.040;73.076;2024-03-29T11:14:24;10.00;8.00;5.00
80555;PMS5003;69889;55.040;73.076;2024-03-29T11:16:53;10.00;8.00;5.00
80555;PMS5003;69889;55.040;73.076;2024-03-29T11:19:23;10.00;8.00;5.00
80555;PMS5003;69889;55.040;73.076;2024-03-29T11:21:50;1.00;1.00;1.00
80555;PMS5003;69889;55.040;73.076;2024-03-29T11:24:17;4.00;3.00;2.00
80555;PMS5003;69889;55.040;73.076;2024-03-29T11:26:45;6.00;5.00;2.00
80555;PMS5003;69889;55.040;73.076;2024-03-29T11:29:22;2.50;2.00;2.00
80555;PMS5003;69889;55.040;73.076;2024-03-29T11:31:58;3.00;2.00;1.00
80555;PMS5003;69889;55.040;73.076;2024-03-29T11:34:25;1.00;1.00;1.00
80555;PMS5003;69889;55.040;73.076;2024-03-29T11:36:51;3.00;2.00;1.00
80555;PMS5003;69889;55.040;73.076;2024-03-29T11:39:21;7.00;6.00;3.50
80555;PMS5003;69889;55.040;73.076;2024-03-29T11:41:48;5.00;4.00;3.00
80555;PMS5003;69889;55.040;73.076;2024-03-29T11:44:14;4.00;3.00;2.00
80555;PMS5003;69889;55.040;73.076;2024-03-29T11:46:42;3.75;3.00;2.00
80555;PMS5003;69889;55.040;73.076;2024-03-29T11:49:08;2.00;2.00;1.00
80555;PMS5003;69889;55.040;73.076;2024-03-29T11:51:35;1.00;1.00;1.00
80555;PMS5003;69889;55.040;73.076;2024-03-29T11:54:01;2.00;2.00;1.00
80555;PMS5003;69889;55.040;73.076;2024-03-29T11:56:28;2.00;2.00;2.00
80555;PMS5003;69889;55.040;73.076;2024-03-29T11:58:55;2.00;2.00;1.00
80555;PMS5003;69889;55.040;73.076;2024-03-29T12:01:26;1.00;1.00;1.00
80555;PMS5003;69889;55.040;73.076;2024-03-29T12:03:53;1.00;1.00;1.00
80555;PMS5003;69889;55.040;73.076;2024-03-29T12:06:20;2.25;2.00;2.00
80555;PMS5003;69889;55.040;73.076;2024-03-29T12:08:46;2.00;2.00;2.00
80555;PMS5003;69889;55.040;73.076;2024-03-29T12:11:15;3.00;2.00;1.00
80555;PMS5003;69889;55.040;73.076;2024-03-29T12:13:41;3.00;3.00;1.00
80555;PMS5003;69889;55.040;73.076;2024-03-29T12:16:10;1.00;1.00;1.00
80555;PMS5003;69889;55.040;73.076;2024-03-29T12:18:58;2.25;2.00;1.00
80555;PMS5003;69889;55.040;73.076;2024-03-29T12:21:25;3.00;2.00;1.00
80555;PMS5003;69889;55.040;73.076;2024-03-29T12:23:51;2.00;2.00;2.00
80555;PMS5003;69889;55.040;73.076;2024-03-29T12:26:18;3.00;2.00;2.00
80555;PMS5003;69889;55.040;73.076;2024-03-29T12:28:48;3.00;3.00;2.00
80555;PMS5003;69889;55.040;73.076;2024-03-29T12:31:19;3.00;3.00;2.00
80555;PMS5003;69889;55.040;73.076;2024-03-29T12:33:52;3.00;3.00;2.00
80555;PMS5003;69889;55.040;73.076;2024-03-29T12:36:22;3.00;2.00;2.00
80555;PMS5003;69889;55.040;73.076;2024-03-29T12:38:49;2.00;2.00;1.50
80555;PMS5003;69889;55.040;73.076;2024-03-29T12:41:19;4.00;3.50;2.00
80555;PMS5003;69889;55.040;73.076;2024-03-29T12:43:51;3.00;3.00;2.00
80555;PMS5003;69889;55.040;73.076;2024-03-29T12:46:30;2.00;2.00;1.75
80555;PMS5003;69889;55.040;73.076;2024-03-29T12:48:58;5.00;4.00;3.00
80555;PMS5003;69889;55.040;73.076;2024-03-29T12:51:26;4.00;3.00;2.00
80555;PMS5003;69889;55.040;73.076;2024-03-29T12:53:52;4.00;4.00;2.00
80555;PMS5003;69889;55.040;73.076;2024-03-29T12:56:20;3.00;3.00;2.25
80555;PMS5003;69889;55.040;73.076;2024-03-29T12:59:06;3.00;2.00;2.00
80555;PMS5003;69889;55.040;73.076;2024-03-29T13:01:33;4.00;3.00;1.50
80555;PMS5003;69889;55.040;73.076;2024-03-29T13:03:59;5.75;5.00;3.00
80555;PMS5003;69889;55.040;73.076;2024-03-29T13:06:26;5.00;4.00;2.00
80555;PMS5003;69889;55.040;73.076;2024-03-29T13:08:54;4.00;3.00;2.00
80555;PMS5003;69889;55.040;73.076;2024-03-29T13:11:22;3.00;3.00;1.25
80555;PMS5003;69889;55.040;73.076;2024-03-29T13:13:49;5.00;4.00;2.00
80555;PMS5003;69889;55.040;73.076;2024-03-29T13:16:15;4.00;3.25;2.00
80555;PMS5003;69889;55.040;73.076;2024-03-29T13:18:42;5.25;4.50;3.00
80555;PMS5003;69889;55.040;73.076;2024-03-29T13:21:10;2.75;2.00;2.00
80555;PMS5003;69889;55.040;73.076;2024-03-29T13:23:37;2.25;2.00;2.00
80555;PMS5003;69889;55.040;73.076;2024-03-29T13:26:23;3.00;3.00;2.00
80555;PMS5003;69889;55.040;73.076;2024-03-29T13:29:08;3.75;3.00;2.50
80555;PMS5003;69889;55.040;73.076;2024-03-29T13:31:35;4.00;3.00;3.00
80555;PMS5003;69889;55.040;73.076;2024-03-29T13:34:01;4.00;3.00;3.00
80555;PMS5003;69889;55.040;73.076;2024-03-29T13:36:41;3.00;2.00;2.00
80555;PMS5003;69889;55.040;73.076;2024-03-29T13:39:26;4.25;4.00;2.75
80555;PMS5003;69889;55.040;73.076;2024-03-29T13:41:52;4.00;4.00;2.00
80555;PMS5003;69889;55.040;73.076;2024-03-29T13:44:19;3.00;3.00;2.00
80555;PMS5003;69889;55.040;73.076;2024-03-29T13:46:45;5.00;3.00;2.00
80555;PMS5003;69889;55.040;73.076;2024-03-29T13:49:12;4.00;4.00;2.00
80555;PMS5003;69889;55.040;73.076;2024-03-29T13:51:39;3.00;3.00;3.00
80555;PMS5003;69889;55.040;73.076;2024-03-29T13:54:05;3.00;3.00;1.75
80555;PMS5003;69889;55.040;73.076;2024-03-29T13:56:51;3.00;3.00;2.00
80555;PMS5003;69889;55.040;73.076;2024-03-29T13:59:37;3.00;3.00;1.00
80555;PMS5003;69889;55.040;73.076;2024-03-29T14:02:03;4.00;4.00;2.00
80555;PMS5003;69889;55.040;73.076;2024-03-29T14:04:45;5.50;5.00;3.00
80555;PMS5003;69889;55.040;73.076;2024-03-29T14:07:12;6.00;6.00;4.00
80555;PMS5003;69889;55.040;73.076;2024-03-29T14:09:44;7.00;6.00;4.00
80555;PMS5003;69889;55.040;73.076;2024-03-29T14:12:11;7.00;6.00;4.00
80555;PMS5003;69889;55.040;73.076;2024-03-29T14:14:38;7.75;7.00;4.00
80555;PMS5003;69889;55.040;73.076;2024-03-29T14:17:05;8.25;7.00;4.25